Maran Pythia — SVAQ5 — position and weather

sailwx.info

Track history (hours):
 
Tides and Currents Weather Stations Pressure Air Temp Water Temp Dewpoint Dewpoint Depression Visibility Wind Speed Wind Dir Waves Ship Positions

Maran Pythia

Last reported at 2014-Aug-22 00:30 UTC. Time now 2014-Aug-22 05:59 UTC.
Position N 32°33' E 025°33'.

Length 274 m; draft 9.2 m.

Type: Tanker. MMSI: 240893000.

Date/timePositionNaut miles runAvg speedWind from/ knotsBaromVisibWave heightAir tempDewpointWater temp
2014-Aug-22 00:30N 32°33' E 025°33'1212.8
2014-Aug-21 23:33N 32°28' E 025°46'2713.1
2014-Aug-21 21:30N 32°18' E 026°16'1413.2
2014-Aug-21 20:26N 32°13' E 026°31'1713.4
2014-Aug-21 19:10N 32°06' E 026°50'  
2014-Aug-18 18:10N 31°13' E 029°23'  
2014-Aug-15 12:21N 35°50' E 015°44'7 8.7
2014-Aug-15 11:34N 35°53' E 015°36'9 9.1
2014-Aug-15 10:34N 35°56' E 015°26'9 9.2
2014-Aug-15 09:33N 35°59' E 015°15'9 9.2
2014-Aug-15 08:33N 36°03' E 015°05'9 9.1
2014-Aug-15 07:33N 36°07' E 014°54'11 9.8
2014-Aug-15 06:28N 36°11' E 014°42'8 9.4
2014-Aug-15 05:33N 36°13' E 014°32'9 9.1
2014-Aug-15 04:34N 36°17' E 014°22'9 9.1
2014-Aug-15 03:34N 36°20' E 014°11'9 8.9
2014-Aug-15 02:34N 36°23' E 014°01'9 9.2
2014-Aug-15 01:34N 36°26' E 013°50'9 9.4
2014-Aug-15 00:34N 36°30' E 013°39'9 9.2
2014-Aug-14 23:33N 36°33' E 013°28'9 9.4
2014-Aug-14 22:34N 36°36' E 013°18'9 9.1
2014-Aug-14 21:34N 36°40' E 013°07'10 9.6
2014-Aug-14 20:34N 36°43' E 012°56'10 9.9
2014-Aug-14 19:33N 36°46' E 012°44'19 9.4
2014-Aug-14 17:34N 36°53' E 012°22'10 9.7
2014-Aug-14 16:30N 36°57' E 012°10'9 9.4
2014-Aug-14 15:33N 36°60' E 012°00'11 9.8
2014-Aug-14 14:28N 37°05' E 011°48'9 9.9
2014-Aug-14 13:32N 37°09' E 011°38'9 9.7
2014-Aug-14 12:34N 37°14' E 011°27'13 9.8
2014-Aug-14 11:14N 37°20' E 011°13'7 9.8
2014-Aug-14 10:31N 37°23' E 011°06'10 9.9
2014-Aug-14 09:33N 37°27' E 010°54'1413.6
2014-Aug-14 08:33N 37°29' E 010°38'32 9.7
2014-Aug-14 05:18N 37°34' E 009°58'3910.4
2014-Aug-14 01:33N 37°36' E 009°09'10 9.7
2014-Aug-14 00:33N 37°36' E 008°57'10 9.6
2014-Aug-13 23:33N 37°37' E 008°45'10 9.7
2014-Aug-13 22:33N 37°36' E 008°33'10 9.6
2014-Aug-13 21:33N 37°35' E 008°20'10 9.8
2014-Aug-13 20:33N 37°34' E 008°08'9 9.6
2014-Aug-13 19:33N 37°33' E 007°56'12 9.5
2014-Aug-13 18:18N 37°31' E 007°41'9011.5
2014-Aug-13 10:26N 37°21' E 005°48'4 4.1
2014-Aug-13 09:32N 37°21' E 005°53'9 9.3
2014-Aug-13 08:33N 37°20' E 005°42'13 9.2
2014-Aug-13 07:10N 37°18' E 005°26'16 9.6
2014-Aug-13 05:31N 37°16' E 005°06'10 9.5
2014-Aug-13 04:28N 37°15' E 004°53'9 9.5
2014-Aug-13 03:30N 37°14' E 004°42'9 8.9
2014-Aug-13 02:31N 37°13' E 004°31'9 9.3
2014-Aug-13 01:33N 37°12' E 004°20'10 9.9
2014-Aug-13 00:31N 37°11' E 004°07'1010.1
2014-Aug-12 23:32N 37°09' E 003°55'9 9.3
2014-Aug-12 22:31N 37°07' E 003°43'9 9.0
2014-Aug-12 21:32N 37°05' E 003°32'9 9.4
2014-Aug-12 20:33N 37°03' E 003°21'11 9.8
2014-Aug-12 19:28N 37°02' E 003°08'9 9.3
2014-Aug-12 18:33N 36°60' E 002°57'11 9.7
2014-Aug-12 17:27N 36°57' E 002°45'8 9.0
2014-Aug-12 16:32N 36°55' E 002°34'32 9.3
2014-Aug-12 13:05N 36°49' E 001°55'5 9.7
2014-Aug-12 12:32N 36°48' E 001°48'4210.3
2014-Aug-12 08:27N 36°40' E 000°57'10 9.8
2014-Aug-12 07:29N 36°38' E 000°46'9 9.9
2014-Aug-12 06:33N 36°36' E 000°35'1110.5
2014-Aug-12 05:33N 36°34' E 000°22'1110.8
2014-Aug-12 04:33N 36°31' E 000°09'1010.4
2014-Aug-12 03:33N 36°29' W 000°04'1010.1
2014-Aug-12 02:33N 36°27' W 000°16'1010.4
2014-Aug-12 01:33N 36°25' W 000°29'1010.2
2014-Aug-12 00:33N 36°23' W 000°42'  
Track history (hours):
 
Tides and Currents Weather Stations Pressure Air Temp Water Temp Dewpoint Dewpoint Depression Visibility Wind Speed Wind Dir Waves Ship Positions

Maran Pythia

Last reported at 2014-Aug-22 00:30 UTC. Time now 2014-Aug-22 05:59 UTC.
Position N 32°33' E 025°33'.

Length 274 m; draft 9.2 m.

Type: Tanker. MMSI: 240893000.

Date/timePositionNaut miles runAvg speedWind from/ knotsBaromVisibWave heightAir tempDewpointWater temp
2014-Aug-22 00:30N 32°33' E 025°33'1212.8
2014-Aug-21 23:33N 32°28' E 025°46'2713.1
2014-Aug-21 21:30N 32°18' E 026°16'1413.2
2014-Aug-21 20:26N 32°13' E 026°31'1713.4
2014-Aug-21 19:10N 32°06' E 026°50'  
2014-Aug-18 18:10N 31°13' E 029°23'  
2014-Aug-15 12:21N 35°50' E 015°44'7 8.7
2014-Aug-15 11:34N 35°53' E 015°36'9 9.1
2014-Aug-15 10:34N 35°56' E 015°26'9 9.2
2014-Aug-15 09:33N 35°59' E 015°15'9 9.2
2014-Aug-15 08:33N 36°03' E 015°05'9 9.1
2014-Aug-15 07:33N 36°07' E 014°54'11 9.8
2014-Aug-15 06:28N 36°11' E 014°42'8 9.4
2014-Aug-15 05:33N 36°13' E 014°32'9 9.1
2014-Aug-15 04:34N 36°17' E 014°22'9 9.1
2014-Aug-15 03:34N 36°20' E 014°11'9 8.9
2014-Aug-15 02:34N 36°23' E 014°01'9 9.2
2014-Aug-15 01:34N 36°26' E 013°50'9 9.4
2014-Aug-15 00:34N 36°30' E 013°39'9 9.2
2014-Aug-14 23:33N 36°33' E 013°28'9 9.4
2014-Aug-14 22:34N 36°36' E 013°18'9 9.1
2014-Aug-14 21:34N 36°40' E 013°07'10 9.6
2014-Aug-14 20:34N 36°43' E 012°56'10 9.9
2014-Aug-14 19:33N 36°46' E 012°44'19 9.4
2014-Aug-14 17:34N 36°53' E 012°22'10 9.7
2014-Aug-14 16:30N 36°57' E 012°10'9 9.4
2014-Aug-14 15:33N 36°60' E 012°00'11 9.8
2014-Aug-14 14:28N 37°05' E 011°48'9 9.9
2014-Aug-14 13:32N 37°09' E 011°38'9 9.7
2014-Aug-14 12:34N 37°14' E 011°27'13 9.8
2014-Aug-14 11:14N 37°20' E 011°13'7 9.8
2014-Aug-14 10:31N 37°23' E 011°06'10 9.9
2014-Aug-14 09:33N 37°27' E 010°54'1413.6
2014-Aug-14 08:33N 37°29' E 010°38'32 9.7
2014-Aug-14 05:18N 37°34' E 009°58'3910.4
2014-Aug-14 01:33N 37°36' E 009°09'10 9.7
2014-Aug-14 00:33N 37°36' E 008°57'10 9.6
2014-Aug-13 23:33N 37°37' E 008°45'10 9.7
2014-Aug-13 22:33N 37°36' E 008°33'10 9.6
2014-Aug-13 21:33N 37°35' E 008°20'10 9.8
2014-Aug-13 20:33N 37°34' E 008°08'9 9.6
2014-Aug-13 19:33N 37°33' E 007°56'12 9.5
2014-Aug-13 18:18N 37°31' E 007°41'9011.5
2014-Aug-13 10:26N 37°21' E 005°48'4 4.1
2014-Aug-13 09:32N 37°21' E 005°53'9 9.3
2014-Aug-13 08:33N 37°20' E 005°42'13 9.2
2014-Aug-13 07:10N 37°18' E 005°26'16 9.6
2014-Aug-13 05:31N 37°16' E 005°06'10 9.5
2014-Aug-13 04:28N 37°15' E 004°53'9 9.5
2014-Aug-13 03:30N 37°14' E 004°42'9 8.9
2014-Aug-13 02:31N 37°13' E 004°31'9 9.3
2014-Aug-13 01:33N 37°12' E 004°20'10 9.9
2014-Aug-13 00:31N 37°11' E 004°07'1010.1
2014-Aug-12 23:32N 37°09' E 003°55'9 9.3
2014-Aug-12 22:31N 37°07' E 003°43'9 9.0
2014-Aug-12 21:32N 37°05' E 003°32'9 9.4
2014-Aug-12 20:33N 37°03' E 003°21'11 9.8
2014-Aug-12 19:28N 37°02' E 003°08'9 9.3
2014-Aug-12 18:33N 36°60' E 002°57'11 9.7
2014-Aug-12 17:27N 36°57' E 002°45'8 9.0
2014-Aug-12 16:32N 36°55' E 002°34'32 9.3
2014-Aug-12 13:05N 36°49' E 001°55'5 9.7
2014-Aug-12 12:32N 36°48' E 001°48'4210.3
2014-Aug-12 08:27N 36°40' E 000°57'10 9.8
2014-Aug-12 07:29N 36°38' E 000°46'9 9.9
2014-Aug-12 06:33N 36°36' E 000°35'1110.5
2014-Aug-12 05:33N 36°34' E 000°22'1110.8
2014-Aug-12 04:33N 36°31' E 000°09'1010.4
2014-Aug-12 03:33N 36°29' W 000°04'1010.1
2014-Aug-12 02:33N 36°27' W 000°16'1010.4
2014-Aug-12 01:33N 36°25' W 000°29'1010.2
2014-Aug-12 00:33N 36°23' W 000°42'  

Dump ship's entire track history